Time;durP1;ratioP1;P1;durP2;ratioP2;P2;SDS_P1;SDS_P2;PMS_P1;PMS_P2;Temp;Humidity;BMP_temperature;BMP_pressure;BME280_temperature;BME280_humidity;BME280_pressure;Samples;Min_cycle;Max_cycle;Signal;HPM_P1;HPM_P2
2021/12/21 00:00:18;;;;;;;3.63;3.33;;;;;;;3.20;89.87;99641.34;5032705;28;20208;-56
2021/12/21 00:02:47;;;;;;;3.67;3.37;;;;;;;3.26;88.90;99651.63;5032691;28;20234;-56
2021/12/21 00:05:19;;;;;;;5.70;3.60;;;;;;;3.27;88.88;99649.91;5032758;28;20856;-56
2021/12/21 00:07:50;;;;;;;3.60;3.30;;;;;;;3.25;89.52;99655.03;5032524;28;20249;-55
2021/12/21 00:10:18;;;;;;;4.10;3.80;;;;;;;3.31;89.52;99659.31;5032810;28;20636;-55
2021/12/21 00:13:01;;;;;;;4.00;3.70;;;;;;;3.31;89.34;99659.31;5032469;28;20217;-55
2021/12/21 00:15:41;;;;;;;4.13;3.73;;;;;;;3.38;88.71;99666.19;5032439;28;20260;-55
2021/12/21 00:18:19;;;;;;;3.93;3.63;;;;;;;3.17;88.96;99650.72;5032532;28;20291;-55
2021/12/21 00:20:53;;;;;;;3.90;3.60;;;;;;;3.30;89.67;99673.00;5032712;28;20685;-56
2021/12/21 00:23:34;;;;;;;9.40;4.50;;;;;;;3.22;89.23;99675.53;5032529;28;20676;-56
2021/12/21 00:26:04;;;;;;;5.87;4.57;;;;;;;3.20;89.06;99674.69;5032436;28;20608;-58
2021/12/21 00:28:36;;;;;;;4.70;4.20;;;;;;;3.22;88.69;99680.66;5032317;28;20308;-56
2021/12/21 00:31:03;;;;;;;5.83;4.00;;;;;;;3.07;88.45;99646.41;5032397;28;20577;-60
2021/12/21 00:33:30;;;;;;;5.77;4.13;;;;;;;3.06;88.68;99668.63;5032601;28;20668;-58
2021/12/21 00:35:57;;;;;;;5.40;4.33;;;;;;;3.24;88.17;99683.25;5032296;28;20223;-59
2021/12/21 00:38:26;;;;;;;6.43;4.33;;;;;;;3.26;87.78;99672.16;5032041;28;20284;-59
2021/12/21 00:40:53;;;;;;;4.27;3.87;;;;;;;3.21;88.02;99678.09;5032188;28;20586;-59
2021/12/21 00:43:20;;;;;;;4.43;3.73;;;;;;;3.17;87.24;99677.22;5031898;28;20204;-59
2021/12/21 00:45:47;;;;;;;4.20;3.90;;;;;;;3.11;87.49;99656.69;5032096;28;20667;-59
2021/12/21 00:48:15;;;;;;;3.93;3.63;;;;;;;3.24;86.98;99680.69;5032185;28;20703;-55
2021/12/21 00:50:43;;;;;;;3.80;3.50;;;;;;;3.21;87.02;99694.34;5032168;28;20200;-58
2021/12/21 00:53:10;;;;;;;4.20;3.80;;;;;;;2.97;86.79;99662.63;5031134;28;20697;-59
2021/12/21 00:55:39;;;;;;;7.13;3.80;;;;;;;2.99;87.61;99681.44;5031587;28;20276;-59
2021/12/21 00:58:06;;;;;;;3.50;3.30;;;;;;;3.07;87.50;99685.72;5031751;28;20732;-60
2021/12/21 01:00:33;;;;;;;3.63;3.33;;;;;;;2.92;86.87;99676.28;5032000;28;20288;-60
2021/12/21 01:03:05;;;;;;;3.37;3.10;;;;;;;2.91;87.32;99686.53;5031695;28;20239;-59
2021/12/21 01:05:40;;;;;;;3.47;3.17;;;;;;;2.96;86.73;99676.28;5031704;28;20635;-60
2021/12/21 01:08:09;;;;;;;3.33;3.03;;;;;;;2.97;86.11;99678.00;5031573;28;20901;-58
2021/12/21 01:11:02;;;;;;;3.37;3.07;;;;;;;2.97;86.45;99683.97;5031472;28;20203;-57
2021/12/21 01:16:26;;;;;;;3.60;3.17;;;;;;;3.01;84.84;99687.44;5030952;28;20677;-59
2021/12/21 01:19:06;;;;;;;3.83;2.90;;;;;;;3.09;83.99;99683.19;5031396;28;20193;-59
2021/12/21 01:21:39;;;;;;;3.40;3.10;;;;;;;3.02;84.41;99692.56;5031500;28;20589;-57
2021/12/21 01:29:44;;;;;;;4.37;3.40;;;;;;;3.11;84.60;99691.75;5030507;28;20250;-55
2021/12/21 01:32:18;;;;;;;4.00;3.20;;;;;;;3.00;85.15;99694.25;5031019;28;20202;-58
2021/12/21 01:34:55;;;;;;;3.20;2.97;;;;;;;3.15;84.79;99699.47;5031157;28;20627;-59
2021/12/21 01:37:28;;;;;;;2.80;2.60;;;;;;;3.21;83.46;99696.91;5030907;28;20245;-56
2021/12/21 01:40:14;;;;;;;4.53;3.40;;;;;;;3.19;83.74;99697.75;5031034;28;20208;-55
2021/12/21 01:50:55;;;;;;;3.13;2.83;;;;;;;3.02;83.13;99682.31;5030869;28;20198;-59
2021/12/21 01:53:22;;;;;;;3.23;2.93;;;;;;;3.13;83.36;99690.03;5030747;28;20209;-55
2021/12/21 01:55:50;;;;;;;2.67;2.30;;;;;;;3.03;82.86;99673.78;5030718;28;20198;-56
2021/12/21 01:58:17;;;;;;;2.77;2.57;;;;;;;2.97;83.53;99670.31;5030724;28;20719;-55
2021/12/21 02:00:46;;;;;;;2.53;2.33;;;;;;;3.00;82.21;99657.50;5030792;28;20218;-56
2021/12/21 02:03:13;;;;;;;2.47;2.27;;;;;;;3.26;80.85;99686.69;5030290;28;20234;-56
2021/12/21 02:05:39;;;;;;;2.93;2.33;;;;;;;3.27;81.19;99684.09;5030415;28;20523;-59
2021/12/21 02:08:07;;;;;;;2.60;2.40;;;;;;;3.12;81.77;99688.31;5030390;28;20231;-59
2021/12/21 02:10:34;;;;;;;2.50;2.30;;;;;;;3.12;81.23;99683.19;5030528;28;20209;-59
2021/12/21 02:13:02;;;;;;;3.00;2.40;;;;;;;3.28;80.53;99678.09;5030603;28;20203;-59
2021/12/21 02:15:29;;;;;;;3.83;2.53;;;;;;;3.12;81.50;99657.56;5030222;28;20202;-59
2021/12/21 02:20:49;;;;;;;2.40;2.20;;;;;;;3.35;81.91;99691.84;5030388;28;20787;-58
2021/12/21 02:23:20;;;;;;;5.80;2.77;;;;;;;3.32;82.08;99686.69;5030154;28;20240;-59
2021/12/21 02:26:04;;;;;;;2.60;2.37;;;;;;;3.28;82.64;99690.06;5030345;28;20196;-59
2021/12/21 02:29:08;;;;;;;3.73;2.80;;;;;;;3.08;83.10;99666.94;5030292;28;20229;-59
2021/12/21 02:31:33;;;;;;;4.07;2.20;;;;;;;3.31;82.22;99679.84;5030078;28;20201;-59
2021/12/21 02:34:00;;;;;;;2.53;2.30;;;;;;;3.33;81.99;99693.53;5030177;28;20205;-59
2021/12/21 02:36:29;;;;;;;2.57;2.30;;;;;;;3.33;82.27;99688.41;5030225;28;20397;-59
2021/12/21 02:38:56;;;;;;;3.90;2.57;;;;;;;3.38;81.94;99686.72;5030083;28;20195;-59
2021/12/21 02:41:24;;;;;;;2.93;2.67;;;;;;;3.42;81.81;99692.69;5030358;28;20202;-56
2021/12/21 02:43:52;;;;;;;2.70;2.50;;;;;;;3.41;81.96;99696.97;5030182;28;20197;-55
2021/12/21 02:46:18;;;;;;;2.80;2.60;;;;;;;3.40;81.37;99704.66;5029982;28;20209;-57
2021/12/21 02:48:45;;;;;;;2.43;2.23;;;;;;;3.46;81.62;99700.41;5029849;28;20223;-58
2021/12/21 02:51:12;;;;;;;3.27;2.40;;;;;;;3.53;81.13;99702.13;5029916;28;20296;-58
2021/12/21 02:53:41;;;;;;;3.07;2.40;;;;;;;3.51;81.40;99702.97;5029879;28;20195;-59
2021/12/21 02:56:08;;;;;;;4.93;2.67;;;;;;;3.44;82.50;99703.81;5029853;28;20198;-59
2021/12/21 02:58:35;;;;;;;2.30;2.10;;;;;;;3.57;82.30;99705.56;5029928;28;20289;-59
2021/12/21 03:01:02;;;;;;;2.67;2.30;;;;;;;3.56;82.40;99704.72;5029816;28;20277;-58
2021/12/21 03:03:29;;;;;;;3.33;2.60;;;;;;;3.37;83.18;99690.13;5029590;28;20244;-56
2021/12/21 03:05:57;;;;;;;2.47;2.37;;;;;;;3.36;83.57;99708.09;5029745;28;20239;-56
2021/12/21 03:08:35;;;;;;;2.90;2.70;;;;;;;3.54;83.39;99716.69;5029790;28;20703;-57
2021/12/21 03:11:11;;;;;;;2.70;2.50;;;;;;;3.27;83.86;99691.78;5029761;28;20206;-55
2021/12/21 03:16:36;;;;;;;2.83;2.63;;;;;;;3.51;83.33;99719.22;4988537;28;20208;-55
2021/12/21 03:19:04;;;;;;;3.67;2.80;;;;;;;3.38;83.00;99706.38;5023864;28;20204;-56
2021/12/21 03:21:31;;;;;;;2.70;2.33;;;;;;;3.56;82.76;99719.25;5033424;28;20303;-56
2021/12/21 03:23:58;;;;;;;3.20;2.90;;;;;;;3.48;83.37;99719.25;5033355;28;20206;-56
2021/12/21 03:26:26;;;;;;;2.77;2.57;;;;;;;3.61;82.60;99720.97;5033825;28;20694;-56
2021/12/21 03:28:53;;;;;;;2.60;2.40;;;;;;;3.70;82.20;99722.72;5033528;28;20273;-56
2021/12/21 03:31:21;;;;;;;2.47;2.33;;;;;;;3.62;82.68;99712.41;5033470;28;20200;-56
2021/12/21 03:33:49;;;;;;;2.97;2.77;;;;;;;3.70;82.62;99732.97;5033244;28;20279;-56
2021/12/21 03:36:17;;;;;;;3.17;2.97;;;;;;;3.52;83.03;99708.13;5033043;28;20695;-56
2021/12/21 03:38:49;;;;;;;4.40;3.30;;;;;;;3.51;83.33;99720.94;5033265;28;20204;-56
2021/12/21 03:41:18;;;;;;;3.37;2.83;;;;;;;3.51;83.32;99726.06;5033093;28;20201;-56
2021/12/21 03:43:47;;;;;;;3.23;3.03;;;;;;;3.53;83.13;99721.81;5033111;28;20215;-56
2021/12/21 03:46:15;;;;;;;3.83;3.03;;;;;;;3.70;82.50;99739.81;5032959;28;20196;-56
2021/12/21 03:48:45;;;;;;;3.57;3.27;;;;;;;3.65;82.04;99734.66;5032777;28;20256;-56
2021/12/21 03:51:13;;;;;;;3.30;3.00;;;;;;;3.63;83.07;99731.25;5033140;28;20212;-56
2021/12/21 03:53:40;;;;;;;3.60;3.30;;;;;;;3.68;81.97;99742.38;5032871;28;20200;-56
2021/12/21 03:56:25;;;;;;;3.60;3.30;;;;;;;3.74;81.65;99741.53;5032798;28;20201;-56
2021/12/21 03:58:53;;;;;;;6.17;3.60;;;;;;;3.38;82.92;99707.25;5032944;28;20267;-56
2021/12/21 04:01:20;;;;;;;2.77;2.57;;;;;;;3.48;82.75;99737.22;5032195;28;20292;-56
2021/12/21 04:03:47;;;;;;;3.67;3.23;;;;;;;3.53;82.15;99743.19;5032021;28;20229;-56
2021/12/21 04:06:15;;;;;;;3.20;3.00;;;;;;;3.51;82.18;99742.31;5033381;28;20260;-55
2021/12/21 04:08:42;;;;;;;3.80;3.33;;;;;;;3.49;82.64;99750.91;5040360;28;20237;-55
2021/12/21 04:11:09;;;;;;;3.53;3.23;;;;;;;3.51;82.84;99747.47;5037426;28;20196;-55
2021/12/21 04:13:36;;;;;;;3.30;3.10;;;;;;;3.58;82.38;99748.34;5039874;28;20203;-55
2021/12/21 04:16:06;;;;;;;3.30;3.00;;;;;;;3.51;82.61;99755.16;5041982;28;20205;-57
2021/12/21 04:18:36;;;;;;;4.10;3.80;;;;;;;3.37;83.88;99751.69;5038205;28;20191;-55
2021/12/21 04:21:03;;;;;;;3.60;3.30;;;;;;;3.34;84.07;99749.13;5041177;28;20684;-57
2021/12/21 04:23:30;;;;;;;3.77;3.47;;;;;;;3.31;83.64;99769.63;5038681;28;20189;-56
2021/12/21 04:25:58;;;;;;;4.43;4.03;;;;;;;3.30;83.88;99760.22;5036528;28;20223;-55
2021/12/21 04:28:25;;;;;;;3.57;3.30;;;;;;;3.23;85.03;99773.88;5038631;28;20221;-56
2021/12/21 04:30:52;;;;;;;3.63;3.33;;;;;;;3.37;83.82;99761.09;5037747;28;20291;-59
2021/12/21 04:33:20;;;;;;;3.23;3.03;;;;;;;3.31;84.36;99772.19;5034333;28;20197;-58
2021/12/21 04:35:47;;;;;;;5.63;3.43;;;;;;;3.17;84.76;99766.13;5041234;28;20211;-58
2021/12/21 04:38:21;;;;;;;3.60;3.30;;;;;;;3.25;85.14;99767.03;5038368;28;20200;-59
2021/12/21 04:40:51;;;;;;;3.97;3.30;;;;;;;3.15;84.95;99737.06;5037213;28;20279;-59
2021/12/21 04:43:18;;;;;;;3.30;3.10;;;;;;;3.33;84.52;99775.63;5039924;28;20267;-58
2021/12/21 04:45:45;;;;;;;3.90;3.60;;;;;;;3.35;84.92;99762.81;5041567;28;20191;-58
2021/12/21 04:48:13;;;;;;;4.00;3.70;;;;;;;3.40;84.65;99779.06;5040096;28;20216;-58
2021/12/21 04:50:42;;;;;;;3.70;3.40;;;;;;;3.33;85.10;99783.31;5039522;28;20202;-58
2021/12/21 04:53:09;;;;;;;3.30;3.07;;;;;;;3.14;87.07;99749.03;5037398;28;20212;-57
2021/12/21 04:55:37;;;;;;;3.87;3.50;;;;;;;3.27;85.39;99784.13;5039876;28;20206;-56
2021/12/21 04:58:04;;;;;;;3.30;3.10;;;;;;;3.34;85.18;99781.59;5041263;28;20285;-57
2021/12/21 05:00:32;;;;;;;5.57;3.20;;;;;;;3.33;85.31;99791.00;5039680;28;20197;-58
2021/12/21 05:02:59;;;;;;;3.63;3.33;;;;;;;3.32;83.88;99799.56;5037578;28;20231;-57
2021/12/21 05:05:26;;;;;;;4.07;3.20;;;;;;;3.26;83.79;99792.69;5031733;28;20286;-57
2021/12/21 05:08:06;;;;;;;3.73;3.30;;;;;;;3.38;83.17;99803.88;5031202;28;20194;-58
2021/12/21 05:10:33;;;;;;;4.47;3.33;;;;;;;3.37;82.91;99808.16;5031491;28;20213;-58
2021/12/21 05:13:00;;;;;;;4.03;3.10;;;;;;;3.28;83.09;99782.44;5031499;28;20196;-58
2021/12/21 05:15:27;;;;;;;3.40;3.03;;;;;;;3.36;83.08;99816.69;5029660;28;20194;-58
2021/12/21 05:17:54;;;;;;;3.17;2.97;;;;;;;3.39;83.27;99819.25;5030944;28;20200;-56
2021/12/21 05:20:21;;;;;;;3.27;3.07;;;;;;;3.43;82.72;99820.13;5031345;28;20213;-57
2021/12/21 05:22:48;;;;;;;4.00;3.00;;;;;;;3.39;82.58;99826.09;5030982;28;20196;-55
2021/12/21 05:25:18;;;;;;;5.17;2.70;;;;;;;3.45;82.56;99827.00;5030436;28;20197;-56
2021/12/21 05:27:45;;;;;;;4.00;3.03;;;;;;;3.40;82.79;99831.22;5028301;28;20199;-55
2021/12/21 05:30:13;;;;;;;4.60;2.90;;;;;;;3.39;82.60;99834.66;5030859;28;20229;-56
2021/12/21 05:32:40;;;;;;;2.93;2.73;;;;;;;3.42;82.61;99832.09;5030956;28;20702;-56
2021/12/21 05:35:08;;;;;;;3.00;2.70;;;;;;;3.46;81.90;99835.56;5030881;28;20721;-56
2021/12/21 05:37:37;;;;;;;2.70;2.50;;;;;;;3.48;81.70;99842.41;5030691;28;20195;-56
2021/12/21 05:40:11;;;;;;;3.80;2.87;;;;;;;3.49;81.49;99851.81;5030209;28;20199;-55
2021/12/21 05:42:41;;;;;;;2.67;2.47;;;;;;;3.02;81.71;99784.00;5030731;28;20249;-55
2021/12/21 05:45:10;;;;;;;2.43;2.23;;;;;;;3.46;82.18;99854.38;5030571;28;20199;-55
2021/12/21 05:47:37;;;;;;;3.30;3.00;;;;;;;3.52;81.94;99854.38;5030570;28;20293;-55
2021/12/21 05:50:07;;;;;;;3.57;2.83;;;;;;;3.51;82.07;99862.94;5030833;28;20383;-57
2021/12/21 05:52:34;;;;;;;3.13;2.63;;;;;;;3.45;81.79;99859.50;5030908;28;20264;-57
2021/12/21 05:55:01;;;;;;;3.10;2.80;;;;;;;3.53;81.17;99861.25;5030787;28;20608;-59
2021/12/21 05:57:28;;;;;;;3.90;3.50;;;;;;;3.56;81.18;99866.41;5030345;28;20287;-58
2021/12/21 05:59:56;;;;;;;5.70;3.17;;;;;;;3.56;80.95;99868.09;5030445;28;20209;-56
2021/12/21 06:02:24;;;;;;;3.33;2.97;;;;;;;3.60;80.68;99865.56;5030320;28;20227;-58
2021/12/21 06:04:51;;;;;;;4.50;3.33;;;;;;;3.63;81.02;99865.56;5030409;28;20205;-59
2021/12/21 06:07:18;;;;;;;4.40;2.60;;;;;;;3.65;81.20;99866.44;5027265;28;20228;-59
2021/12/21 06:09:46;;;;;;;3.30;3.00;;;;;;;3.68;80.78;99872.44;5015146;28;20768;-58
2021/12/21 06:12:19;;;;;;;3.00;2.80;;;;;;;3.70;80.56;99871.59;5029402;28;20228;-59
2021/12/21 06:15:12;;;;;;;4.90;2.93;;;;;;;3.69;80.81;99879.28;5029677;28;20318;-59
2021/12/21 06:23:39;;;;;;;6.67;5.87;;;;;;;3.74;81.59;99898.97;5029344;28;20242;-59
2021/12/21 06:26:09;;;;;;;6.07;4.70;;;;;;;3.68;81.58;99896.41;5030004;28;20315;-58
2021/12/21 06:28:37;;;;;;;4.63;3.70;;;;;;;3.75;80.99;99902.41;5029178;28;20229;-58
2021/12/21 06:31:04;;;;;;;8.37;4.87;;;;;;;3.73;81.31;99898.97;5036154;28;20714;-58
2021/12/21 06:33:33;;;;;;;6.30;3.87;;;;;;;3.78;81.54;99907.56;5049451;28;20226;-58
2021/12/21 06:36:00;;;;;;;4.53;4.13;;;;;;;3.82;80.97;99910.16;5049774;28;20639;-58
2021/12/21 06:38:28;;;;;;;7.20;3.90;;;;;;;3.84;81.34;99918.72;5049447;28;20232;-58
2021/12/21 06:40:55;;;;;;;6.00;4.00;;;;;;;3.84;80.03;99913.56;5037463;28;20308;-58
2021/12/21 06:43:23;;;;;;;6.57;4.47;;;;;;;3.87;80.23;99928.16;5029113;28;20239;-59
2021/12/21 06:45:55;;;;;;;7.63;4.07;;;;;;;3.87;79.39;99933.28;5030168;28;20236;-58
2021/12/21 06:51:19;;;;;;;5.03;3.73;;;;;;;3.80;78.23;99905.88;5030438;28;20597;-58
2021/12/21 06:53:48;;;;;;;6.00;3.40;;;;;;;4.01;78.45;99926.50;5034372;28;20220;-60
2021/12/21 06:56:16;;;;;;;6.73;4.00;;;;;;;3.99;78.23;99926.50;5033716;28;20596;-57
2021/12/21 06:58:43;;;;;;;3.93;3.60;;;;;;;4.06;77.26;99935.09;5032207;28;20752;-56
2021/12/21 07:01:11;;;;;;;7.47;3.27;;;;;;;4.13;77.65;99936.81;5040693;28;20235;-56
2021/12/21 07:03:38;;;;;;;7.27;4.40;;;;;;;4.01;77.30;99904.25;5053315;28;20644;-56
2021/12/21 07:06:07;;;;;;;5.17;3.40;;;;;;;4.29;77.25;99943.72;5054123;28;20227;-56
2021/12/21 07:08:45;;;;;;;3.60;3.27;;;;;;;4.36;76.86;99937.78;5053999;28;20600;-58
2021/12/21 07:11:23;;;;;;;5.53;3.97;;;;;;;4.44;76.76;99952.34;5053513;28;20224;-58
2021/12/21 07:19:20;;;;;;;3.43;2.93;;;;;;;4.54;75.90;99954.06;5053364;28;20230;-59
2021/12/21 07:21:47;;;;;;;8.07;2.83;;;;;;;4.60;75.34;99943.81;5053780;28;20254;-58
2021/12/21 07:24:15;;;;;;;4.93;3.87;;;;;;;4.64;74.68;99959.25;5053719;28;20220;-58
2021/12/21 07:26:42;;;;;;;9.53;4.13;;;;;;;4.63;74.55;99954.94;5053335;28;20224;-58
2021/12/21 07:29:09;;;;;;;2.73;2.53;;;;;;;4.47;74.19;99952.34;5053455;28;20232;-59
2021/12/21 07:31:37;;;;;;;3.13;2.93;;;;;;;4.21;74.85;99932.56;5042829;28;20616;-58
2021/12/21 07:34:04;;;;;;;6.80;2.57;;;;;;;4.31;74.80;99929.16;5033360;28;20232;-58
2021/12/21 07:36:32;;;;;;;3.47;2.93;;;;;;;4.42;74.16;99930.91;5033763;28;20232;-59
2021/12/21 07:38:59;;;;;;;3.10;2.83;;;;;;;4.55;74.40;99955.78;5033731;28;20591;-58
2021/12/21 07:41:28;;;;;;;5.93;2.90;;;;;;;4.70;74.24;99963.56;5032773;28;20239;-58
2021/12/21 07:43:55;;;;;;;4.33;2.80;;;;;;;4.74;72.86;99958.41;5031511;28;20217;-59
2021/12/21 07:46:22;;;;;;;3.80;2.87;;;;;;;4.71;73.20;99967.84;5033223;28;20723;-57
2021/12/21 07:48:49;;;;;;;3.83;2.97;;;;;;;4.86;72.77;99980.72;5033567;28;20579;-57
2021/12/21 07:51:16;;;;;;;6.20;2.73;;;;;;;4.95;72.29;99977.31;5033445;28;20310;-57
2021/12/21 07:53:44;;;;;;;3.43;2.70;;;;;;;4.96;72.74;99992.75;5033412;28;20697;-58
2021/12/21 07:56:11;;;;;;;14.53;4.30;;;;;;;4.89;73.22;99985.88;5032824;28;20575;-57
2021/12/21 07:58:40;;;;;;;5.53;2.43;;;;;;;4.89;72.02;99995.28;5033455;28;20231;-57
2021/12/21 08:01:07;;;;;;;3.90;2.50;;;;;;;4.92;72.29;99992.75;5036795;28;20715;-57
2021/12/21 08:03:35;;;;;;;3.10;2.70;;;;;;;4.88;72.38;100001.28;5044047;28;20308;-57
2021/12/21 08:06:02;;;;;;;3.70;2.83;;;;;;;4.83;71.75;99975.59;5040487;28;20237;-57
2021/12/21 08:08:30;;;;;;;6.37;3.67;;;;;;;4.97;72.07;100001.31;5043456;28;20302;-57
2021/12/21 08:11:11;;;;;;;9.43;3.20;;;;;;;4.98;71.94;100009.03;5044327;28;20235;-57
2021/12/21 08:13:43;;;;;;;4.43;3.10;;;;;;;4.98;71.73;100010.75;5044747;28;20235;-57
2021/12/21 08:16:11;;;;;;;6.70;3.23;;;;;;;5.08;71.92;100009.88;5042978;28;20235;-55
2021/12/21 08:18:39;;;;;;;3.07;2.67;;;;;;;5.08;71.10;100008.19;5033358;28;20312;-58
2021/12/21 08:21:07;;;;;;;9.53;3.23;;;;;;;5.03;71.36;100017.63;5032177;28;20231;-58
2021/12/21 08:23:34;;;;;;;11.47;3.47;;;;;;;5.05;71.92;100021.06;5030154;28;20628;-58
2021/12/21 08:26:01;;;;;;;15.50;4.83;;;;;;;5.09;71.96;100014.19;5031028;28;20223;-59
2021/12/21 08:28:28;;;;;;;25.97;5.00;;;;;;;5.20;71.50;100015.06;5031697;28;20700;-58
2021/12/21 08:30:56;;;;;;;117.07;12.40;;;;;;;5.29;70.52;100015.09;5031853;28;20233;-58
2021/12/21 08:33:23;;;;;;;18.10;4.27;;;;;;;5.30;69.65;100011.66;5031875;28;20227;-56
2021/12/21 08:35:51;;;;;;;10.20;4.63;;;;;;;5.41;69.28;100015.09;5031655;28;20308;-57
2021/12/21 08:38:19;;;;;;;110.17;9.13;;;;;;;5.25;68.02;99976.47;5031820;28;20303;-56
2021/12/21 08:40:49;;;;;;;17.80;4.63;;;;;;;5.55;67.21;100020.22;5031315;28;20217;-57
2021/12/21 08:43:18;;;;;;;15.57;3.30;;;;;;;5.52;66.34;100022.81;5031954;28;20224;-57
2021/12/21 08:45:48;;;;;;;10.80;4.70;;;;;;;5.60;66.65;100021.06;5031772;28;20312;-56
2021/12/21 08:48:17;;;;;;;9.37;3.27;;;;;;;5.49;66.97;100025.38;5047384;28;20238;-55
2021/12/21 08:50:44;;;;;;;12.03;7.53;;;;;;;5.47;66.71;100030.53;5051517;28;20695;-56
2021/12/21 08:53:12;;;;;;;96.20;10.40;;;;;;;5.59;66.28;100027.09;5051566;28;20226;-56
2021/12/21 08:55:40;;;;;;;66.70;9.33;;;;;;;5.70;66.88;100030.50;5051172;28;20726;-56
2021/12/21 08:58:07;;;;;;;35.20;5.67;;;;;;;5.81;66.35;100025.34;5051823;28;20228;-55
2021/12/21 09:00:35;;;;;;;22.23;5.27;;;;;;;5.74;66.50;100034.81;5051517;28;20216;-56
2021/12/21 09:03:02;;;;;;;15.33;7.23;;;;;;;5.73;66.50;100032.22;5051082;28;20241;-55
2021/12/21 09:05:31;;;;;;;7.90;3.73;;;;;;;5.55;65.69;100003.91;5051285;28;20647;-56
2021/12/21 09:08:00;;;;;;;4.97;2.93;;;;;;;5.64;66.34;100021.94;5051295;28;20672;-56
2021/12/21 09:10:28;;;;;;;11.10;4.00;;;;;;;5.46;66.02;100013.34;5050689;28;20320;-56
2021/12/21 09:12:56;;;;;;;50.87;6.40;;;;;;;5.44;66.90;100025.38;5051079;28;20228;-56
2021/12/21 09:15:24;;;;;;;41.70;4.83;;;;;;;5.53;66.91;100027.06;5050192;28;20224;-56
2021/12/21 09:17:51;;;;;;;83.07;8.97;;;;;;;5.56;67.18;100019.34;5038418;28;20264;-56
2021/12/21 09:20:21;;;;;;;27.70;4.70;;;;;;;5.54;67.98;100021.06;5031046;28;20225;-55
2021/12/21 09:22:50;;;;;;;72.60;7.77;;;;;;;5.63;67.90;100020.22;5030919;28;20226;-55
2021/12/21 09:25:18;;;;;;;35.33;4.87;;;;;;;5.59;69.29;100018.50;5030519;28;20307;-56
2021/12/21 09:27:45;;;;;;;252.23;17.80;;;;;;;5.60;69.43;100012.50;5030932;28;20232;-55
2021/12/21 09:30:14;;;;;;;68.53;7.77;;;;;;;5.61;69.93;100012.50;5030919;28;20316;-55
2021/12/21 09:32:41;;;;;;;24.17;4.77;;;;;;;5.63;69.24;100000.47;5030516;28;20232;-56
2021/12/21 09:35:09;;;;;;;15.70;4.57;;;;;;;5.62;69.07;100011.63;5030753;28;20244;-55
2021/12/21 09:37:37;;;;;;;9.43;3.47;;;;;;;5.47;69.25;99998.78;5030774;28;20672;-55
2021/12/21 09:40:10;;;;;;;92.00;9.57;;;;;;;5.55;70.04;100002.19;5030232;28;20259;-55
2021/12/21 09:42:37;;;;;;;32.57;5.20;;;;;;;5.53;69.48;99993.59;5030569;28;20243;-56
2021/12/21 09:45:06;;;;;;;4.93;2.20;;;;;;;5.54;69.38;99997.91;5030765;28;20225;-57
2021/12/21 09:47:36;;;;;;;5.67;3.40;;;;;;;5.58;69.71;100002.19;5040055;28;20315;-57
2021/12/21 09:50:08;;;;;;;4.33;2.20;;;;;;;5.62;68.74;99996.19;5050720;28;20606;-57
2021/12/21 09:52:35;;;;;;;2.30;2.10;;;;;;;5.68;68.12;100003.03;5041402;28;20308;-57
2021/12/21 09:55:05;;;;;;;2.87;2.63;;;;;;;5.66;68.50;100002.16;5029828;28;20231;-59
2021/12/21 09:57:33;;;;;;;3.17;2.93;;;;;;;5.66;69.82;100005.59;5029078;28;20714;-57
2021/12/21 10:00:01;;;;;;;5.70;2.47;;;;;;;5.71;68.62;99997.88;5029903;28;20538;-56
2021/12/21 10:02:28;;;;;;;7.47;2.93;;;;;;;5.66;68.07;100004.75;5029671;28;20256;-56
2021/12/21 10:04:57;;;;;;;2.70;2.50;;;;;;;5.79;66.44;100003.88;5030377;28;20221;-56
2021/12/21 10:07:26;;;;;;;2.80;2.50;;;;;;;5.74;66.42;99998.75;5030241;28;20661;-56
2021/12/21 10:10:05;;;;;;;2.77;2.57;;;;;;;5.83;66.51;99993.56;5029704;28;20642;-57
2021/12/21 10:12:35;;;;;;;4.53;3.90;;;;;;;5.81;66.69;99997.88;5029829;28;20256;-57
2021/12/21 10:15:09;;;;;;;4.30;3.60;;;;;;;5.72;66.93;99992.75;5030286;28;20263;-57
2021/12/21 10:17:37;;;;;;;3.50;3.20;;;;;;;5.74;67.25;99997.91;5040083;28;20278;-57
2021/12/21 10:20:08;;;;;;;3.50;3.20;;;;;;;5.72;67.81;99997.03;5049879;28;20255;-57
2021/12/21 10:22:37;;;;;;;3.27;3.07;;;;;;;5.80;65.68;99998.72;5049769;28;20220;-57
2021/12/21 10:25:09;;;;;;;3.67;3.00;;;;;;;5.79;65.52;99997.00;5049511;28;20216;-57
2021/12/21 10:27:44;;;;;;;5.07;3.40;;;;;;;5.91;64.25;99990.16;5049770;28;20692;-57
2021/12/21 10:30:12;;;;;;;3.57;2.50;;;;;;;5.75;63.27;99968.72;5049862;28;20809;-59
2021/12/21 10:32:50;;;;;;;3.93;2.47;;;;;;;5.94;64.34;100005.59;5049626;28;20637;-57
2021/12/21 10:35:17;;;;;;;4.77;3.57;;;;;;;5.96;64.16;99994.44;5049778;28;20226;-56
2021/12/21 10:37:46;;;;;;;5.73;2.33;;;;;;;6.08;63.57;99978.94;5049803;28;20220;-56
2021/12/21 10:40:21;;;;;;;45.63;5.30;;;;;;;6.09;63.25;99985.81;5049319;28;20223;-57
2021/12/21 10:42:53;;;;;;;169.13;10.60;;;;;;;6.01;63.67;99978.94;5049661;28;20257;-56
2021/12/21 10:45:26;;;;;;;29.03;3.90;;;;;;;5.95;63.95;99960.94;5049803;28;20228;-56
2021/12/21 10:47:53;;;;;;;20.13;4.17;;;;;;;6.03;65.36;99974.66;5036701;28;20304;-57
2021/12/21 10:50:20;;;;;;;3.67;2.40;;;;;;;6.04;63.76;99972.06;5029821;28;20665;-56
2021/12/21 10:52:53;;;;;;;20.70;8.33;;;;;;;5.97;63.41;99974.69;5029627;28;20221;-56
2021/12/21 10:55:27;;;;;;;9.70;6.93;;;;;;;5.82;64.19;99966.09;5029543;28;20221;-57
2021/12/21 10:58:15;;;;;;;4.23;3.83;;;;;;;5.86;64.50;99966.09;5029706;28;20225;-56
2021/12/21 11:00:46;;;;;;;58.93;6.43;;;;;;;5.90;64.33;99973.81;5029475;28;20216;-57
2021/12/21 11:03:18;;;;;;;24.23;4.60;;;;;;;5.94;63.31;99979.84;5029361;28;20244;-57
2021/12/21 11:05:46;;;;;;;77.80;8.03;;;;;;;6.03;63.05;99984.97;5029535;28;20252;-56
2021/12/21 11:08:24;;;;;;;42.93;6.30;;;;;;;6.05;63.07;99980.66;5029222;28;20213;-56
2021/12/21 11:10:58;;;;;;;380.80;30.53;;;;;;;6.08;63.06;99976.38;5028910;28;20660;-56
2021/12/21 11:13:26;;;;;;;92.13;8.97;;;;;;;5.97;62.48;99970.41;5029118;28;20304;-57
2021/12/21 11:15:56;;;;;;;30.70;4.60;;;;;;;6.00;62.03;99960.06;5029502;28;20221;-57
2021/12/21 11:18:25;;;;;;;15.67;3.47;;;;;;;6.03;61.63;99984.97;5046006;28;20274;-57
2021/12/21 11:20:54;;;;;;;12.07;2.73;;;;;;;6.06;61.63;99987.53;5049398;28;20219;-56
2021/12/21 11:23:24;;;;;;;4.83;2.60;;;;;;;6.11;60.63;99983.22;5048644;28;20256;-56
2021/12/21 11:25:53;;;;;;;4.20;2.27;;;;;;;6.06;60.25;99974.66;5049223;28;20252;-56
2021/12/21 11:28:26;;;;;;;28.40;3.63;;;;;;;6.08;59.86;99967.78;5049319;28;20220;-56
2021/12/21 11:30:59;;;;;;;3.83;2.23;;;;;;;6.06;58.86;99974.66;5048970;28;20260;-57
2021/12/21 11:33:29;;;;;;;50.43;5.43;;;;;;;5.95;58.23;99953.22;5048979;28;20227;-57
2021/12/21 11:38:42;;;;;;;5.80;2.67;;;;;;;6.23;58.90;99970.28;5050846;28;20719;-57
2021/12/21 11:41:09;;;;;;;7.03;2.47;;;;;;;6.23;58.28;99965.13;5052736;28;20289;-55
2021/12/21 11:43:48;;;;;;;7.70;2.70;;;;;;;6.23;58.08;99965.13;5052832;28;20255;-55
2021/12/21 11:46:25;;;;;;;6.20;2.50;;;;;;;6.22;57.40;99970.28;5052620;28;20216;-55
2021/12/21 11:48:58;;;;;;;51.93;5.70;;;;;;;6.22;58.26;99976.28;5013327;28;20222;-54
2021/12/21 11:51:27;;;;;;;103.50;8.83;;;;;;;6.31;57.25;99968.56;5013059;28;20256;-55
2021/12/21 11:53:55;;;;;;;70.30;6.77;;;;;;;6.37;57.31;99971.09;5012599;28;20222;-55
2021/12/21 11:56:27;;;;;;;47.10;6.10;;;;;;;6.41;57.38;99967.63;5025529;28;20221;-55
2021/12/21 11:58:56;;;;;;;36.80;4.67;;;;;;;6.46;56.57;99957.28;5033078;28;20312;-56
2021/12/21 12:01:27;;;;;;;10.47;3.23;;;;;;;6.35;58.04;99971.94;5032729;28;20261;-55
2021/12/21 12:03:59;;;;;;;50.60;5.73;;;;;;;6.45;57.33;99974.47;5032632;28;20272;-56
2021/12/21 12:06:28;;;;;;;40.33;5.40;;;;;;;6.44;57.57;99975.34;5032616;28;20246;-57
2021/12/21 12:09:00;;;;;;;63.43;8.03;;;;;;;6.50;58.06;99966.72;5032139;28;20223;-55
2021/12/21 12:11:35;;;;;;;29.43;4.93;;;;;;;6.42;58.88;99974.53;5032194;28;20691;-55
2021/12/21 12:14:07;;;;;;;14.10;2.83;;;;;;;6.31;60.33;99971.13;5032421;28;20224;-55
2021/12/21 12:16:45;;;;;;;14.37;4.50;;;;;;;6.16;60.91;99981.50;5033729;28;20225;-57
2021/12/21 12:19:14;;;;;;;109.67;10.50;;;;;;;6.18;61.94;99990.09;5052261;28;20303;-56
2021/12/21 12:21:56;;;;;;;89.23;11.70;;;;;;;6.01;62.24;99981.53;5041389;28;20247;-56
2021/12/21 12:24:25;;;;;;;12.80;3.47;;;;;;;6.02;62.61;99985.81;5031735;28;20311;-57
2021/12/21 12:27:03;;;;;;;175.93;13.67;;;;;;;6.05;62.33;99994.41;5032036;28;20225;-57
2021/12/21 12:29:31;;;;;;;56.00;5.70;;;;;;;6.05;63.03;99993.56;5032164;28;20656;-57